Terminal Aerodrome Forecast
Issued by NWS Quad Cities IA IL

Home | Current Version | Previous Version | Text Only | Print | Product List | Glossary On
Versions: 1 2 3 4 5 6 7 8 9 10 11 12 13 14 15 16 17 18 19
000
FTUS43 KDVN 062321
TAFMLI
TAF
KMLI 062321Z 0700/0724 20008KT 4SM TSRA BR OVC035CB
      TEMPO 0700/0701 1SM +TSRA BR OVC020CB
     FM070200 28006KT 6SM BR VCSH OVC020
     FM070400 32008KT 5SM BR OVC015
     FM071400 01008KT P6SM BKN030=

USA.gov is the U.S. government's official web portal to all federal, state and local government web resources and services.